Time;durP1;ratioP1;P1;durP2;ratioP2;P2;SDS_P1;SDS_P2;PMS_P1;PMS_P2;Temp;Humidity;BMP_temperature;BMP_pressure;BME280_temperature;BME280_humidity;BME280_pressure;Samples;Min_cycle;Max_cycle;Signal;HPM_P1;HPM_P2
2022/09/29 00:00:29;;;;;;;;;;;;;;;8.69;80.98;99143.72;4935705;29;19942;-76
2022/09/29 00:03:33;;;;;;;;;;;;;;;8.69;80.48;99151.53;4936221;29;19941;-75
2022/09/29 00:06:37;;;;;;;;;;;;;;;8.79;80.69;99147.38;4935625;29;19926;-76
2022/09/29 00:09:41;;;;;;;;;;;;;;;8.61;81.54;99155.50;4934630;29;19930;-76
2022/09/29 00:12:45;;;;;;;;;;;;;;;8.83;80.71;99157.47;4934271;29;20327;-76
2022/09/29 00:15:59;;;;;;;;;;;;;;;8.90;79.42;99152.69;4935924;29;19926;-76
2022/09/29 00:19:06;;;;;;;;;;;;;;;8.72;79.97;99165.19;4935882;29;20305;-76
2022/09/29 00:22:09;;;;;;;;;;;;;;;8.72;80.19;99159.97;4936885;29;19949;-75
2022/09/29 00:25:14;;;;;;;;;;;;;;;8.59;80.19;99162.56;4936771;29;20039;-75
2022/09/29 00:28:20;;;;;;;;;;;;;;;8.84;79.46;99159.16;4937001;29;19952;-75
2022/09/29 00:31:25;;;;;;;;;;;;;;;8.75;79.51;99156.34;4936728;29;20017;-75
2022/09/29 00:34:28;;;;;;;;;;;;;;;8.56;80.84;99162.78;4924877;29;19949;-75
2022/09/29 00:37:32;;;;;;;;;;;;;;;8.68;80.35;99165.47;4934842;29;19989;-76
2022/09/29 00:40:35;;;;;;;;;;;;;;;8.76;79.73;99168.44;4934934;29;19990;-75
2022/09/29 00:43:46;;;;;;;;;;;;;;;8.48;80.29;99165.03;4935181;29;19969;-75
2022/09/29 00:46:56;;;;;;;;;;;;;;;8.52;80.35;99163.91;4934586;29;19962;-75
2022/09/29 00:50:10;;;;;;;;;;;;;;;8.53;80.50;99164.75;4934641;29;19921;-76
2022/09/29 00:53:14;;;;;;;;;;;;;;;8.40;81.10;99162.09;4935748;29;20014;-75
2022/09/29 00:56:18;;;;;;;;;;;;;;;8.60;80.41;99169.44;4924070;29;19986;-76
2022/09/29 00:59:31;;;;;;;;;;;;;;;8.57;80.61;99161.00;4934777;29;19925;-75
2022/09/29 01:02:37;;;;;;;;;;;;;;;8.64;80.43;99158.81;4934821;29;20125;-75
2022/09/29 01:05:46;;;;;;;;;;;;;;;8.52;80.44;99156.09;4935009;29;19930;-75
2022/09/29 01:08:50;;;;;;;;;;;;;;;8.53;79.67;99160.34;4935373;29;20438;-75
2022/09/29 01:11:57;;;;;;;;;;;;;;;8.48;79.48;99162.41;4935451;29;19970;-76
2022/09/29 01:15:00;;;;;;;;;;;;;;;8.23;79.71;99164.91;4935234;29;20021;-75
2022/09/29 01:18:05;;;;;;;;;;;;;;;8.21;79.50;99156.38;4935291;29;19922;-75
2022/09/29 01:21:13;;;;;;;;;;;;;;;8.35;78.20;99151.94;4923492;29;19930;-75
2022/09/29 01:24:28;;;;;;;;;;;;;;;8.40;77.95;99143.03;4936692;29;19989;-75
2022/09/29 01:27:44;;;;;;;;;;;;;;;8.37;77.96;99147.47;4938991;29;19970;-76
2022/09/29 01:30:48;;;;;;;;;;;;;;;8.33;78.34;99147.78;4919821;29;20381;-75
2022/09/29 01:33:55;;;;;;;;;;;;;;;8.32;78.05;99149.53;4919366;29;19922;-75
2022/09/29 01:37:09;;;;;;;;;;;;;;;8.24;78.34;99153.59;4919814;29;19922;-75
2022/09/29 01:40:12;;;;;;;;;;;;;;;8.20;78.93;99152.09;4920146;29;19925;-75
2022/09/29 01:43:21;;;;;;;;;;;;;;;8.14;78.36;99155.94;4920142;29;19922;-76
2022/09/29 01:46:30;;;;;;;;;;;;;;;7.96;78.96;99155.34;4897461;29;19965;-75
2022/09/29 01:49:37;;;;;;;;;;;;;;;7.96;79.21;99157.09;4919894;29;19985;-76
2022/09/29 01:52:42;;;;;;;;;;;;;;;7.92;79.91;99161.69;4919711;29;20385;-76
2022/09/29 01:55:49;;;;;;;;;;;;;;;7.97;80.08;99163.97;4919607;29;19922;-76
2022/09/29 01:58:59;;;;;;;;;;;;;;;7.93;80.86;99163.34;4919497;29;19934;-75
2022/09/29 02:02:07;;;;;;;;;;;;;;;8.11;79.77;99158.75;4919119;29;20474;-75
2022/09/29 02:05:23;;;;;;;;;;;;;;;8.11;79.93;99167.38;4919086;29;20013;-75
2022/09/29 02:08:37;;;;;;;;;;;;;;;7.82;80.64;99166.63;4919600;29;20319;-76
2022/09/29 02:11:41;;;;;;;;;;;;;;;7.88;80.07;99157.56;4919464;29;19921;-75
2022/09/29 02:14:47;;;;;;;;;;;;;;;8.01;79.68;99163.69;4907429;29;20394;-75
2022/09/29 02:17:52;;;;;;;;;;;;;;;7.98;79.48;99163.06;4919119;29;19962;-75
2022/09/29 02:20:55;;;;;;;;;;;;;;;7.83;79.96;99162.25;4918858;29;19938;-75
2022/09/29 02:23:58;;;;;;;;;;;;;;;7.81;80.13;99175.34;4919006;29;19922;-76
2022/09/29 02:27:03;;;;;;;;;;;;;;;7.90;78.99;99171.34;4918858;29;19922;-75
2022/09/29 02:30:06;;;;;;;;;;;;;;;7.77;79.51;99178.25;4936023;29;19965;-76
2022/09/29 02:33:17;;;;;;;;;;;;;;;7.66;80.21;99176.31;4937912;29;19921;-76
2022/09/29 02:36:26;;;;;;;;;;;;;;;7.83;79.92;99172.66;4936717;29;19938;-75
2022/09/29 02:39:43;;;;;;;;;;;;;;;7.75;78.71;99174.88;4937911;29;20074;-76
2022/09/29 02:42:58;;;;;;;;;;;;;;;7.65;78.31;99180.66;4937924;29;19966;-76
2022/09/29 02:46:05;;;;;;;;;;;;;;;7.74;77.99;99178.44;4937725;29;19925;-76
2022/09/29 02:49:08;;;;;;;;;;;;;;;7.58;78.21;99178.53;4943628;29;20392;-76
2022/09/29 02:52:15;;;;;;;;;;;;;;;7.62;77.64;99173.03;4957110;29;19926;-75
2022/09/29 02:55:37;;;;;;;;;;;;;;;7.45;77.70;99183.66;4956697;29;19969;-75
2022/09/29 02:58:53;;;;;;;;;;;;;;;7.46;77.29;99185.31;4956426;29;19993;-76
2022/09/29 03:01:57;;;;;;;;;;;;;;;7.42;77.03;99178.63;4956614;29;20376;-75
2022/09/29 03:05:08;;;;;;;;;;;;;;;7.40;76.30;99181.34;4956010;29;20008;-75
2022/09/29 03:08:11;;;;;;;;;;;;;;;7.32;76.59;99182.72;4956352;29;19921;-75
2022/09/29 03:11:15;;;;;;;;;;;;;;;7.22;77.29;99187.66;4956254;29;19940;-76
2022/09/29 03:14:18;;;;;;;;;;;;;;;7.26;77.51;99170.94;4956784;29;19925;-75
2022/09/29 03:17:21;;;;;;;;;;;;;;;7.32;77.70;99174.94;4956267;28;19921;-75
2022/09/29 03:20:25;;;;;;;;;;;;;;;7.31;78.01;99175.88;4956105;29;20278;-75
2022/09/29 03:23:29;;;;;;;;;;;;;;;7.35;78.27;99172.16;4955710;29;19921;-75
2022/09/29 03:26:34;;;;;;;;;;;;;;;7.50;77.77;99171.22;4955771;29;19926;-76
2022/09/29 03:29:38;;;;;;;;;;;;;;;7.28;78.09;99181.25;4969573;28;20274;-76
2022/09/29 03:32:44;;;;;;;;;;;;;;;7.30;78.11;99182.81;4976776;28;19921;-75
2022/09/29 03:35:48;;;;;;;;;;;;;;;7.40;77.66;99183.09;4973812;28;19929;-76
2022/09/29 03:38:51;;;;;;;;;;;;;;;7.37;77.87;99191.94;4974659;28;20061;-75
2022/09/29 03:41:56;;;;;;;;;;;;;;;7.30;78.27;99189.78;4975102;28;20158;-75
2022/09/29 03:45:00;;;;;;;;;;;;;;;7.16;79.08;99188.84;4944417;28;19925;-75
2022/09/29 03:48:03;;;;;;;;;;;;;;;7.33;78.56;99189.59;4934972;29;19972;-75
2022/09/29 03:51:09;;;;;;;;;;;;;;;7.32;78.29;99187.94;4967775;28;19920;-75
2022/09/29 03:54:16;;;;;;;;;;;;;;;7.17;79.41;99193.09;4970010;28;19977;-75
2022/09/29 03:57:23;;;;;;;;;;;;;;;7.41;78.87;99202.97;4969550;28;19925;-75
2022/09/29 04:00:32;;;;;;;;;;;;;;;7.43;78.60;99194.16;4974423;28;20025;-75
2022/09/29 04:03:40;;;;;;;;;;;;;;;7.13;79.93;99196.81;4974204;28;19929;-75
2022/09/29 04:06:46;;;;;;;;;;;;;;;7.20;79.92;99207.69;4974656;28;19925;-75
2022/09/29 04:09:49;;;;;;;;;;;;;;;7.20;79.42;99205.91;4974002;28;19933;-75
2022/09/29 04:12:53;;;;;;;;;;;;;;;7.25;78.77;99207.44;4974870;28;20517;-75
2022/09/29 04:15:59;;;;;;;;;;;;;;;7.15;79.27;99210.56;4974578;28;19921;-76
2022/09/29 04:19:06;;;;;;;;;;;;;;;6.95;79.68;99216.09;4930492;29;19973;-76
2022/09/29 04:22:17;;;;;;;;;;;;;;;7.14;79.18;99221.88;4969489;28;19920;-76
2022/09/29 04:25:23;;;;;;;;;;;;;;;7.14;79.25;99216.69;4968917;28;19929;-76
2022/09/29 04:28:32;;;;;;;;;;;;;;;7.22;78.14;99217.06;4969585;28;20001;-75
2022/09/29 04:31:39;;;;;;;;;;;;;;;7.27;76.75;99223.75;4969996;28;20321;-76
2022/09/29 04:34:47;;;;;;;;;;;;;;;7.13;77.60;99228.00;4969481;28;19920;-76
2022/09/29 04:37:56;;;;;;;;;;;;;;;6.95;78.85;99232.50;4970315;28;19956;-76
2022/09/29 04:41:03;;;;;;;;;;;;;;;7.01;78.54;99227.91;4971147;28;20408;-75
2022/09/29 04:44:08;;;;;;;;;;;;;;;7.07;78.08;99230.97;4970878;28;20281;-75
2022/09/29 04:47:17;;;;;;;;;;;;;;;6.84;78.97;99234.06;4966919;28;19961;-75
2022/09/29 04:50:23;;;;;;;;;;;;;;;7.01;78.68;99233.94;4968534;28;20023;-75
2022/09/29 04:53:27;;;;;;;;;;;;;;;6.94;78.62;99230.00;4967849;28;19937;-75
2022/09/29 04:56:30;;;;;;;;;;;;;;;7.09;77.92;99228.28;4967958;28;19924;-75
2022/09/29 04:59:34;;;;;;;;;;;;;;;6.80;78.55;99227.38;4955326;28;19996;-76
2022/09/29 05:02:38;;;;;;;;;;;;;;;6.84;78.70;99234.91;4968936;28;19956;-76
2022/09/29 05:05:42;;;;;;;;;;;;;;;6.95;79.12;99237.72;4969578;28;19925;-75
2022/09/29 05:08:46;;;;;;;;;;;;;;;6.89;78.27;99237.22;4970326;28;19921;-75
2022/09/29 05:11:51;;;;;;;;;;;;;;;6.85;78.84;99238.34;4970562;28;19925;-76
2022/09/29 05:14:54;;;;;;;;;;;;;;;6.81;79.16;99240.28;4968776;28;20254;-76
2022/09/29 05:18:02;;;;;;;;;;;;;;;6.99;78.70;99243.59;4969688;28;20001;-75
2022/09/29 05:21:07;;;;;;;;;;;;;;;7.06;78.44;99249.28;4969139;28;20068;-76
2022/09/29 05:24:10;;;;;;;;;;;;;;;7.09;77.49;99246.50;4969141;28;19945;-76
2022/09/29 05:27:15;;;;;;;;;;;;;;;6.95;78.02;99249.88;4969370;28;19921;-76
2022/09/29 05:30:27;;;;;;;;;;;;;;;7.01;77.72;99246.91;4969685;28;20005;-75
2022/09/29 05:33:31;;;;;;;;;;;;;;;6.91;78.38;99256.19;4971056;28;19946;-76
2022/09/29 05:36:34;;;;;;;;;;;;;;;7.09;78.03;99252.53;4971629;28;19957;-76
2022/09/29 05:39:39;;;;;;;;;;;;;;;6.98;78.44;99252.28;4971272;28;20080;-76
2022/09/29 05:42:43;;;;;;;;;;;;;;;7.01;78.57;99257.31;4970580;28;20009;-75
2022/09/29 05:45:47;;;;;;;;;;;;;;;7.10;78.07;99249.00;4968935;28;19972;-76
2022/09/29 05:48:51;;;;;;;;;;;;;;;7.12;77.53;99260.16;4947697;28;19925;-76
2022/09/29 05:51:55;;;;;;;;;;;;;;;7.13;77.49;99258.38;4947222;28;19921;-76
2022/09/29 05:55:00;;;;;;;;;;;;;;;6.97;77.73;99263.63;4950824;28;19920;-76
2022/09/29 05:58:04;;;;;;;;;;;;;;;6.89;77.70;99263.22;4954088;28;20368;-76
2022/09/29 06:01:08;;;;;;;;;;;;;;;6.73;78.50;99263.25;4967814;28;20203;-76
2022/09/29 06:04:16;;;;;;;;;;;;;;;6.71;78.78;99268.53;4955690;28;20388;-76
2022/09/29 06:07:20;;;;;;;;;;;;;;;6.68;79.18;99271.31;4968071;28;19921;-76
2022/09/29 06:10:24;;;;;;;;;;;;;;;6.58;80.27;99270.16;4968541;28;19924;-77
2022/09/29 06:13:28;;;;;;;;;;;;;;;6.67;80.30;99268.81;4971387;28;19994;-76
2022/09/29 06:16:34;;;;;;;;;;;;;;;6.64;80.83;99274.19;4972641;28;20005;-76
2022/09/29 06:19:38;;;;;;;;;;;;;;;6.84;80.95;99273.03;4972737;28;19929;-76
2022/09/29 06:22:42;;;;;;;;;;;;;;;7.14;79.32;99273.88;4973121;28;20376;-76
2022/09/29 06:25:45;;;;;;;;;;;;;;;7.04;79.51;99279.69;4972419;28;19925;-77
2022/09/29 06:28:49;;;;;;;;;;;;;;;7.01;80.03;99282.47;4933374;29;19966;-76
2022/09/29 06:31:53;;;;;;;;;;;;;;;7.20;79.27;99283.91;4921575;29;19925;-76
2022/09/29 06:38:18;;;;;;;;;;;;;;;7.03;79.28;99276.25;4952881;28;19921;-77
2022/09/29 06:41:23;;;;;;;;;;;;;;;7.07;79.57;99271.72;4961007;28;20393;-77
2022/09/29 06:44:28;;;;;;;;;;;;;;;7.14;79.88;99286.03;4971841;28;20392;-76
2022/09/29 06:47:32;;;;;;;;;;;;;;;7.09;79.52;99283.72;4971754;28;19921;-77
2022/09/29 06:50:36;;;;;;;;;;;;;;;7.23;79.06;99281.13;4972126;28;19920;-76
2022/09/29 06:53:40;;;;;;;;;;;;;;;7.21;79.87;99285.59;4957348;28;20013;-77
2022/09/29 06:56:48;;;;;;;;;;;;;;;6.89;80.49;99284.88;4970102;28;19980;-78
2022/09/29 06:59:51;;;;;;;;;;;;;;;6.38;83.02;99292.03;4971116;28;19921;-78
2022/09/29 07:02:54;;;;;;;;;;;;;;;6.45;83.37;99289.94;4955930;28;19968;-77
2022/09/29 07:06:00;;;;;;;;;;;;;;;6.81;83.11;99288.81;4952266;28;19976;-77
2022/09/29 07:09:04;;;;;;;;;;;;;;;6.47;84.09;99282.88;4954328;28;19922;-77
2022/09/29 07:12:10;;;;;;;;;;;;;;;6.42;85.21;99290.09;4975309;28;20407;-77
2022/09/29 07:15:13;;;;;;;;;;;;;;;6.26;85.91;99296.13;4961828;28;19966;-77
2022/09/29 07:18:17;;;;;;;;;;;;;;;6.69;83.70;99291.16;4953802;28;20349;-75
2022/09/29 07:21:21;;;;;;;;;;;;;;;6.90;82.75;99296.91;4951294;28;20203;-75
2022/09/29 07:24:25;;;;;;;;;;;;;;;7.24;81.97;99297.56;4954023;28;20017;-75
2022/09/29 07:27:28;;;;;;;;;;;;;;;7.42;80.52;99293.91;4951163;28;20490;-75
2022/09/29 07:30:31;;;;;;;;;;;;;;;7.50;79.59;99298.66;4951124;28;19925;-75
2022/09/29 07:33:35;;;;;;;;;;;;;;;7.52;78.97;99303.75;4939730;29;19921;-75
2022/09/29 07:36:39;;;;;;;;;;;;;;;7.63;78.46;99306.56;4952400;28;19922;-75
2022/09/29 07:39:43;;;;;;;;;;;;;;;7.42;79.04;99313.88;4969157;28;19968;-76
2022/09/29 07:42:46;;;;;;;;;;;;;;;7.39;79.55;99308.84;4958372;28;19925;-76
2022/09/29 07:45:50;;;;;;;;;;;;;;;7.42;80.02;99308.66;4970003;28;19972;-76
2022/09/29 07:48:53;;;;;;;;;;;;;;;7.42;79.94;99313.88;4969983;28;19941;-76
2022/09/29 07:51:57;;;;;;;;;;;;;;;7.46;79.67;99315.34;4969867;28;20011;-76
2022/09/29 07:55:03;;;;;;;;;;;;;;;7.49;78.95;99311.75;4957393;28;19965;-75
2022/09/29 07:58:06;;;;;;;;;;;;;;;7.44;79.12;99312.03;4952682;28;19921;-76
2022/09/29 08:01:11;;;;;;;;;;;;;;;7.44;79.52;99312.03;4956181;28;19924;-76
2022/09/29 08:04:16;;;;;;;;;;;;;;;7.53;79.71;99311.50;4957533;28;19938;-76
2022/09/29 08:07:20;;;;;;;;;;;;;;;7.63;80.52;99328.22;4960697;28;19937;-76
2022/09/29 08:10:23;;;;;;;;;;;;;;;7.61;80.46;99322.25;4959131;28;19921;-76
2022/09/29 08:13:26;;;;;;;;;;;;;;;7.80;79.26;99322.00;4959017;28;19948;-76
2022/09/29 08:16:31;;;;;;;;;;;;;;;7.73;79.64;99328.50;4955367;28;19925;-76
2022/09/29 08:19:35;;;;;;;;;;;;;;;7.81;79.21;99334.06;4951598;28;20041;-76
2022/09/29 08:22:38;;;;;;;;;;;;;;;7.71;79.45;99332.13;4945578;28;20309;-76
2022/09/29 08:25:42;;;;;;;;;;;;;;;7.78;79.00;99331.66;4960445;28;19933;-76
2022/09/29 08:28:46;;;;;;;;;;;;;;;7.91;79.40;99336.97;4954447;28;19969;-76
2022/09/29 08:31:50;;;;;;;;;;;;;;;7.92;78.40;99346.47;4950448;28;20130;-76
2022/09/29 08:34:53;;;;;;;;;;;;;;;8.05;77.88;99343.97;4952995;28;19985;-76
2022/09/29 08:37:57;;;;;;;;;;;;;;;8.03;78.61;99351.00;4970142;28;19924;-76
2022/09/29 08:41:02;;;;;;;;;;;;;;;8.04;78.30;99358.75;4960594;28;20436;-75
2022/09/29 08:44:10;;;;;;;;;;;;;;;8.24;77.81;99354.09;4948972;28;20404;-76
2022/09/29 08:47:39;;;;;;;;;;;;;;;8.14;78.68;99359.84;4953755;28;19929;-76
2022/09/29 08:51:02;;;;;;;;;;;;;;;8.12;78.49;99360.88;4950847;28;20281;-76
2022/09/29 08:54:12;;;;;;;;;;;;;;;8.16;78.40;99362.34;4950307;28;19946;-75
2022/09/29 08:57:20;;;;;;;;;;;;;;;8.30;79.97;99358.94;4962201;28;20381;-75
2022/09/29 09:00:29;;;;;;;;;;;;;;;7.85;81.31;99353.81;4954748;28;19921;-75
2022/09/29 09:03:44;;;;;;;;;;;;;;;8.05;81.30;99357.81;4961321;28;20041;-76
2022/09/29 09:07:17;;;;;;;;;;;;;;;8.27;80.56;99359.13;4954015;29;19985;-76
2022/09/29 09:10:21;;;;;;;;;;;;;;;8.38;79.76;99361.91;4960422;28;19937;-76
2022/09/29 09:13:43;;;;;;;;;;;;;;;8.45;80.56;99360.59;4959216;28;19956;-75
2022/09/29 09:16:46;;;;;;;;;;;;;;;8.59;80.04;99364.97;4953447;29;19920;-75
2022/09/29 09:20:14;;;;;;;;;;;;;;;8.68;79.53;99363.53;4952892;28;19956;-76
2022/09/29 09:23:23;;;;;;;;;;;;;;;8.77;79.35;99360.34;4956992;28;20377;-76
2022/09/29 09:26:43;;;;;;;;;;;;;;;8.79;79.80;99361.09;4953884;29;19933;-76
2022/09/29 09:29:48;;;;;;;;;;;;;;;9.07;79.12;99362.78;4939375;29;20012;-76
2022/09/29 09:32:53;;;;;;;;;;;;;;;9.04;79.14;99360.38;4953631;29;19957;-76
2022/09/29 09:36:17;;;;;;;;;;;;;;;9.32;78.55;99352.41;4953475;28;19936;-76
2022/09/29 09:39:26;;;;;;;;;;;;;;;9.32;79.16;99354.19;4954334;28;19937;-76
2022/09/29 09:42:32;;;;;;;;;;;;;;;9.10;80.74;99349.53;4953487;28;19937;-79
2022/09/29 09:45:38;;;;;;;;;;;;;;;9.00;81.74;99354.53;4956557;28;19930;-79
2022/09/29 09:48:43;;;;;;;;;;;;;;;8.97;81.67;99359.09;4957769;29;20385;-79
2022/09/29 09:51:53;;;;;;;;;;;;;;;9.33;81.34;99363.69;4945688;29;20397;-79
2022/09/29 09:55:02;;;;;;;;;;;;;;;9.29;80.05;99357.84;4957259;29;20389;-79
2022/09/29 09:58:05;;;;;;;;;;;;;;;9.30;80.82;99353.44;4957143;29;19937;-79
2022/09/29 10:01:11;;;;;;;;;;;;;;;9.37;80.82;99361.72;4957642;29;20009;-79
2022/09/29 10:04:14;;;;;;;;;;;;;;;9.38;80.38;99353.81;4953511;28;19925;-78
2022/09/29 10:07:23;;;;;;;;;;;;;;;9.39;80.88;99350.25;4940799;28;20384;-79
2022/09/29 10:10:30;;;;;;;;;;;;;;;9.54;80.17;99346.63;4958272;28;19922;-79
2022/09/29 10:13:34;;;;;;;;;;;;;;;9.55;80.29;99350.91;4960235;28;19921;-79
2022/09/29 10:16:47;;;;;;;;;;;;;;;9.69;80.63;99354.34;4953470;28;19921;-78
2022/09/29 10:19:51;;;;;;;;;;;;;;;9.92;79.90;99348.44;4957328;28;20008;-76
2022/09/29 10:23:10;;;;;;;;;;;;;;;10.10;79.26;99346.31;4972218;28;20001;-76
2022/09/29 10:26:17;;;;;;;;;;;;;;;10.17;78.02;99357.16;4971114;28;20411;-76
2022/09/29 10:29:22;;;;;;;;;;;;;;;10.22;78.88;99349.84;4957166;28;19940;-76
2022/09/29 10:32:26;;;;;;;;;;;;;;;10.31;78.44;99349.25;4959285;28;20285;-76
2022/09/29 10:35:37;;;;;;;;;;;;;;;10.43;79.53;99343.16;4971767;28;20005;-78
2022/09/29 10:38:44;;;;;;;;;;;;;;;10.62;78.26;99349.69;4971383;28;19944;-78
2022/09/29 10:41:53;;;;;;;;;;;;;;;10.70;78.06;99350.00;4971262;28;19980;-78
2022/09/29 10:45:01;;;;;;;;;;;;;;;10.79;78.67;99333.63;4933001;29;19925;-78
2022/09/29 10:48:04;;;;;;;;;;;;;;;10.91;78.47;99344.97;4969243;28;19968;-78
2022/09/29 10:51:24;;;;;;;;;;;;;;;11.05;77.88;99344.00;4940542;28;20337;-77
2022/09/29 10:54:47;;;;;;;;;;;;;;;11.16;76.81;99336.19;4951613;28;20036;-77
2022/09/29 10:57:53;;;;;;;;;;;;;;;11.25;77.24;99338.13;4952065;28;20171;-77
2022/09/29 11:01:17;;;;;;;;;;;;;;;11.32;76.56;99341.94;4958761;28;19922;-78
2022/09/29 11:04:31;;;;;;;;;;;;;;;11.49;75.52;99345.94;4971179;28;20384;-78
2022/09/29 11:07:42;;;;;;;;;;;;;;;11.49;74.40;99338.09;4970540;28;19921;-78
2022/09/29 11:10:45;;;;;;;;;;;;;;;11.38;74.55;99338.03;4970965;28;20020;-78
2022/09/29 11:13:51;;;;;;;;;;;;;;;11.40;74.81;99339.59;4971041;28;20384;-78
2022/09/29 11:16:56;;;;;;;;;;;;;;;11.49;75.23;99338.09;4970719;28;19921;-78
2022/09/29 11:20:02;;;;;;;;;;;;;;;11.67;75.27;99338.47;4959198;28;19921;-78
2022/09/29 11:23:22;;;;;;;;;;;;;;;11.91;74.79;99337.59;4971039;28;20005;-76
2022/09/29 11:26:45;;;;;;;;;;;;;;;12.02;74.78;99341.03;4970491;28;20010;-76
2022/09/29 11:29:54;;;;;;;;;;;;;;;12.13;73.52;99340.22;4969719;28;20438;-76
2022/09/29 11:33:08;;;;;;;;;;;;;;;12.22;73.36;99334.28;4955993;28;19981;-76
2022/09/29 11:36:22;;;;;;;;;;;;;;;12.24;72.49;99334.16;4951767;28;19913;-76
2022/09/29 11:39:26;;;;;;;;;;;;;;;12.43;72.20;99333.53;4951164;28;19965;-76
2022/09/29 11:42:49;;;;;;;;;;;;;;;12.44;72.29;99336.03;4940132;28;19920;-76
2022/09/29 11:46:06;;;;;;;;;;;;;;;12.52;73.14;99333.66;4950471;28;19999;-76
2022/09/29 11:49:09;;;;;;;;;;;;;;;12.54;72.43;99337.00;4955372;28;19980;-76
2022/09/29 11:52:19;;;;;;;;;;;;;;;12.60;71.97;99334.81;4954445;28;19964;-76
2022/09/29 11:55:44;;;;;;;;;;;;;;;12.68;71.21;99338.50;4950605;28;19968;-76
2022/09/29 11:58:54;;;;;;;;;;;;;;;12.95;70.87;99332.81;4963335;28;19984;-76
2022/09/29 12:02:16;;;;;;;;;;;;;;;13.07;68.59;99328.38;4970539;28;19920;-76
2022/09/29 12:05:26;;;;;;;;;;;;;;;13.15;68.75;99325.97;4969423;28;19924;-76
2022/09/29 12:08:48;;;;;;;;;;;;;;;13.13;67.03;99327.03;4968622;28;20445;-76
2022/09/29 12:11:51;;;;;;;;;;;;;;;13.23;65.89;99330.56;4969431;28;19929;-76
2022/09/29 12:15:07;;;;;;;;;;;;;;;13.32;64.66;99326.41;4969804;28;20332;-76
2022/09/29 12:18:14;;;;;;;;;;;;;;;13.29;66.25;99326.66;4970998;28;20053;-78
2022/09/29 12:21:25;;;;;;;;;;;;;;;13.45;64.51;99324.41;4970237;28;19936;-76
2022/09/29 12:24:35;;;;;;;;;;;;;;;13.59;64.67;99328.50;4969720;28;20017;-76
2022/09/29 12:27:39;;;;;;;;;;;;;;;13.90;63.85;99326.75;4968766;28;19936;-76
2022/09/29 12:30:42;;;;;;;;;;;;;;;14.60;61.54;99325.09;4970159;28;19925;-76
2022/09/29 12:33:49;;;;;;;;;;;;;;;16.04;55.91;99318.09;4969160;28;19960;-76
2022/09/29 12:37:02;;;;;;;;;;;;;;;18.48;47.94;99316.91;4969030;28;19944;-76
2022/09/29 12:40:32;;;;;;;;;;;;;;;19.54;42.94;99309.09;4971321;28;21095;-76
2022/09/29 12:43:47;;;;;;;;;;;;;;;18.02;46.79;99308.41;4929648;29;19961;-76
2022/09/29 12:46:56;;;;;;;;;;;;;;;21.37;41.06;99302.66;4930305;29;20025;-76
2022/09/29 12:50:32;;;;;;;;;;;;;;;25.25;32.17;99300.34;4929151;29;20013;-76
2022/09/29 12:53:36;;;;;;;;;;;;;;;25.48;32.11;99304.47;4917698;29;20413;-77
2022/09/29 12:56:59;;;;;;;;;;;;;;;28.78;26.99;99290.00;4966616;28;19972;-77
2022/09/29 13:00:11;;;;;;;;;;;;;;;28.28;27.04;99289.19;4969603;28;20037;-77
2022/09/29 13:03:21;;;;;;;;;;;;;;;23.71;32.18;99291.09;4969669;28;19976;-77
2022/09/29 13:06:37;;;;;;;;;;;;;;;20.55;37.84;99299.69;4969056;28;19924;-77
2022/09/29 13:09:41;;;;;;;;;;;;;;;20.07;36.71;99305.03;4970026;28;20015;-76
2022/09/29 13:13:09;;;;;;;;;;;;;;;20.73;34.95;99297.59;4954824;29;19951;-76
2022/09/29 13:16:20;;;;;;;;;;;;;;;21.89;32.94;99296.50;4970764;28;19928;-76
2022/09/29 13:19:35;;;;;;;;;;;;;;;23.71;30.22;99281.25;4972480;28;19992;-77
2022/09/29 13:22:55;;;;;;;;;;;;;;;25.56;26.68;99290.03;4977191;28;19921;-77
2022/09/29 13:26:17;;;;;;;;;;;;;;;25.96;25.58;99285.47;4976620;28;19988;-78
2022/09/29 13:29:22;;;;;;;;;;;;;;;26.63;25.05;99284.19;4976206;28;19925;-77
2022/09/29 13:32:27;;;;;;;;;;;;;;;24.10;27.71;99286.00;4957345;29;20312;-77
2022/09/29 13:35:41;;;;;;;;;;;;;;;21.70;32.61;99291.72;4956114;29;19925;-77
2022/09/29 13:38:50;;;;;;;;;;;;;;;18.32;37.53;99297.31;4956038;29;19923;-77
2022/09/29 13:41:55;;;;;;;;;;;;;;;17.55;39.15;99299.03;4957252;28;20301;-77
2022/09/29 13:45:35;;;;;;;;;;;;;;;17.39;39.68;99305.03;4957275;28;19925;-76
2022/09/29 13:48:46;;;;;;;;;;;;;;;17.66;39.43;99304.03;4945265;28;19972;-77
2022/09/29 13:52:02;;;;;;;;;;;;;;;18.65;39.33;99304.53;4958225;28;19933;-76
2022/09/29 13:55:24;;;;;;;;;;;;;;;21.22;34.49;99309.72;4960631;28;19917;-77
2022/09/29 13:58:38;;;;;;;;;;;;;;;24.97;27.01;99303.16;4953612;28;19922;-77
2022/09/29 14:01:44;;;;;;;;;;;;;;;27.28;24.06;99299.25;4953761;28;19969;-77
2022/09/29 14:04:49;;;;;;;;;;;;;;;28.37;21.73;99292.41;4959504;28;19924;-77
2022/09/29 14:07:56;;;;;;;;;;;;;;;25.56;28.08;99306.94;4974510;28;19920;-77
2022/09/29 14:11:02;;;;;;;;;;;;;;;23.94;30.53;99312.19;4973115;28;19966;-77
2022/09/29 14:14:08;;;;;;;;;;;;;;;25.40;27.41;99308.19;4958819;28;20034;-77
2022/09/29 14:17:33;;;;;;;;;;;;;;;25.41;28.90;99306.31;4972426;28;20385;-77
2022/09/29 14:20:36;;;;;;;;;;;;;;;23.72;30.36;99308.75;4972648;28;20468;-77
2022/09/29 14:23:44;;;;;;;;;;;;;;;21.54;32.11;99314.81;4971630;28;20010;-77
2022/09/29 14:26:50;;;;;;;;;;;;;;;19.49;31.75;99314.88;4971624;28;20020;-77
2022/09/29 14:30:03;;;;;;;;;;;;;;;18.34;33.80;99315.66;4971276;28;19985;-77
2022/09/29 14:33:13;;;;;;;;;;;;;;;18.07;38.51;99324.66;4939676;28;20008;-76
2022/09/29 14:36:20;;;;;;;;;;;;;;;17.96;36.03;99333.66;4928911;28;20400;-76
2022/09/29 14:39:26;;;;;;;;;;;;;;;17.52;36.23;99330.22;4940398;28;19970;-77
2022/09/29 14:42:32;;;;;;;;;;;;;;;16.82;42.92;99344.13;4953732;28;19965;-76
2022/09/29 14:52:53;;;;;;;;;;;;;;;17.25;48.22;99339.91;4952680;28;19979;-77
2022/09/29 14:56:12;;;;;;;;;;;;;;;16.56;46.67;99349.25;4952370;28;19921;-76
2022/09/29 14:59:24;;;;;;;;;;;;;;;16.28;52.75;99357.16;4963362;28;19917;-76
2022/09/29 15:02:29;;;;;;;;;;;;;;;15.56;54.60;99355.06;4973000;28;19956;-76
2022/09/29 15:05:34;;;;;;;;;;;;;;;15.69;50.55;99349.53;4972679;28;20501;-76
2022/09/29 15:08:39;;;;;;;;;;;;;;;15.38;53.03;99365.50;4972160;28;19964;-78
2022/09/29 15:11:45;;;;;;;;;;;;;;;15.47;52.82;99361.19;4970807;28;20436;-78
2022/09/29 15:14:49;;;;;;;;;;;;;;;15.25;53.22;99364.94;4932204;29;20489;-78
2022/09/29 15:18:06;;;;;;;;;;;;;;;15.19;55.09;99362.84;4932319;29;19926;-78
2022/09/29 15:21:19;;;;;;;;;;;;;;;15.05;53.68;99359.66;4933239;29;19974;-78
2022/09/29 15:24:43;;;;;;;;;;;;;;;14.85;55.54;99365.88;4934396;29;20342;-78
2022/09/29 15:27:48;;;;;;;;;;;;;;;14.68;54.89;99370.00;4955271;28;19992;-78
2022/09/29 15:30:53;;;;;;;;;;;;;;;14.44;56.26;99365.03;4951867;28;19941;-78
2022/09/29 15:33:57;;;;;;;;;;;;;;;14.41;57.84;99367.94;4953178;28;19937;-78
2022/09/29 15:37:03;;;;;;;;;;;;;;;14.46;59.12;99368.38;4953440;28;19921;-78
2022/09/29 15:40:13;;;;;;;;;;;;;;;14.33;59.05;99379.13;4953837;29;20541;-78
2022/09/29 15:43:27;;;;;;;;;;;;;;;14.36;60.66;99381.50;4952273;28;20404;-77
2022/09/29 15:46:34;;;;;;;;;;;;;;;14.23;60.86;99388.78;4951620;29;19924;-78
2022/09/29 15:49:48;;;;;;;;;;;;;;;14.14;61.93;99398.25;4951944;29;19924;-78
2022/09/29 15:52:51;;;;;;;;;;;;;;;14.09;61.82;99394.34;4951217;29;19920;-78
2022/09/29 15:55:55;;;;;;;;;;;;;;;14.15;61.01;99396.47;4950908;29;19969;-78
2022/09/29 15:58:59;;;;;;;;;;;;;;;14.10;65.63;99411.78;4951029;29;19924;-78
2022/09/29 16:02:05;;;;;;;;;;;;;;;14.10;65.64;99415.28;4950925;29;19933;-78
2022/09/29 16:05:13;;;;;;;;;;;;;;;14.07;65.17;99420.78;4950629;29;19965;-78
2022/09/29 16:08:21;;;;;;;;;;;;;;;13.96;67.20;99423.47;4950658;29;20009;-78
2022/09/29 16:11:29;;;;;;;;;;;;;;;13.89;68.39;99430.19;4949920;29;20057;-78
2022/09/29 16:14:35;;;;;;;;;;;;;;;13.81;68.41;99437.88;4949918;29;20425;-77
2022/09/29 16:17:40;;;;;;;;;;;;;;;13.83;68.10;99441.22;4938866;29;19981;-78
2022/09/29 16:20:45;;;;;;;;;;;;;;;14.00;68.11;99437.19;4950680;29;19921;-75
2022/09/29 16:24:11;;;;;;;;;;;;;;;13.79;65.70;99448.53;4950382;29;19917;-75
2022/09/29 16:27:33;;;;;;;;;;;;;;;13.68;65.71;99452.03;4912514;29;19930;-75
2022/09/29 16:31:00;;;;;;;;;;;;;;;13.57;67.79;99456.50;4900018;29;19925;-76
2022/09/29 16:35:38;;;;;;;;;;;;;;;13.40;68.44;99460.47;4904353;29;20430;-75
2022/09/29 16:38:46;;;;;;;;;;;;;;;13.73;66.78;99463.00;4920324;29;20018;-75